sensor_id;sensor_type;location;lat;lon;timestamp;temperature;humidity
34837;DHT22;21053;50.848;4.652;2022-09-13T00:01:06;17.70;99.90
34837;DHT22;21053;50.848;4.652;2022-09-13T00:03:33;17.70;99.90
34837;DHT22;21053;50.848;4.652;2022-09-13T00:06:10;17.60;99.90
34837;DHT22;21053;50.848;4.652;2022-09-13T00:08:37;17.60;99.90
34837;DHT22;21053;50.848;4.652;2022-09-13T00:11:06;17.50;99.90
34837;DHT22;21053;50.848;4.652;2022-09-13T00:13:33;17.50;99.90
34837;DHT22;21053;50.848;4.652;2022-09-13T00:16:02;17.60;99.90
34837;DHT22;21053;50.848;4.652;2022-09-13T00:18:29;17.60;99.90
34837;DHT22;21053;50.848;4.652;2022-09-13T00:21:12;17.50;99.90
34837;DHT22;21053;50.848;4.652;2022-09-13T00:23:46;17.40;99.90
34837;DHT22;21053;50.848;4.652;2022-09-13T00:26:15;17.50;99.90
34837;DHT22;21053;50.848;4.652;2022-09-13T00:28:56;17.60;99.90
34837;DHT22;21053;50.848;4.652;2022-09-13T00:31:25;17.60;99.90
34837;DHT22;21053;50.848;4.652;2022-09-13T00:33:54;17.60;99.90
34837;DHT22;21053;50.848;4.652;2022-09-13T00:36:21;17.70;99.90
34837;DHT22;21053;50.848;4.652;2022-09-13T00:38:47;17.70;99.90
34837;DHT22;21053;50.848;4.652;2022-09-13T00:41:20;17.60;99.90
34837;DHT22;21053;50.848;4.652;2022-09-13T00:43:57;17.60;99.90
34837;DHT22;21053;50.848;4.652;2022-09-13T00:46:41;17.50;99.90
34837;DHT22;21053;50.848;4.652;2022-09-13T00:51:57;17.40;99.90
34837;DHT22;21053;50.848;4.652;2022-09-13T00:54:28;17.40;99.90
34837;DHT22;21053;50.848;4.652;2022-09-13T00:56:58;17.40;99.90
34837;DHT22;21053;50.848;4.652;2022-09-13T00:59:35;17.40;99.90
34837;DHT22;21053;50.848;4.652;2022-09-13T01:02:03;17.40;99.90
34837;DHT22;21053;50.848;4.652;2022-09-13T01:04:31;17.50;99.90
34837;DHT22;21053;50.848;4.652;2022-09-13T01:07:03;17.40;99.90
34837;DHT22;21053;50.848;4.652;2022-09-13T01:09:31;17.30;99.90
34837;DHT22;21053;50.848;4.652;2022-09-13T01:12:10;17.40;99.90
34837;DHT22;21053;50.848;4.652;2022-09-13T01:14:40;17.40;99.90
34837;DHT22;21053;50.848;4.652;2022-09-13T01:17:09;17.50;99.90
34837;DHT22;21053;50.848;4.652;2022-09-13T01:19:36;17.50;99.90
34837;DHT22;21053;50.848;4.652;2022-09-13T01:22:37;17.50;99.90
34837;DHT22;21053;50.848;4.652;2022-09-13T01:34:02;17.40;99.90
34837;DHT22;21053;50.848;4.652;2022-09-13T01:37:23;17.50;99.90
34837;DHT22;21053;50.848;4.652;2022-09-13T01:40:03;17.70;99.90
34837;DHT22;21053;50.848;4.652;2022-09-13T01:51:41;17.70;99.90
34837;DHT22;21053;50.848;4.652;2022-09-13T01:54:37;17.80;99.90
34837;DHT22;21053;50.848;4.652;2022-09-13T01:57:18;17.60;99.90
34837;DHT22;21053;50.848;4.652;2022-09-13T01:59:53;17.70;99.90
34837;DHT22;21053;50.848;4.652;2022-09-13T02:05:17;17.80;99.90
34837;DHT22;21053;50.848;4.652;2022-09-13T02:07:58;17.60;99.90
34837;DHT22;21053;50.848;4.652;2022-09-13T02:10:30;17.60;99.90
34837;DHT22;21053;50.848;4.652;2022-09-13T02:12:58;17.50;99.90
34837;DHT22;21053;50.848;4.652;2022-09-13T02:15:35;17.60;99.90
34837;DHT22;21053;50.848;4.652;2022-09-13T02:18:16;17.70;99.90
34837;DHT22;21053;50.848;4.652;2022-09-13T02:20:46;17.80;99.90
34837;DHT22;21053;50.848;4.652;2022-09-13T02:23:22;17.90;99.90
34837;DHT22;21053;50.848;4.652;2022-09-13T02:25:52;17.80;99.90
34837;DHT22;21053;50.848;4.652;2022-09-13T02:28:27;17.60;99.90
34837;DHT22;21053;50.848;4.652;2022-09-13T02:30:57;17.50;99.90
34837;DHT22;21053;50.848;4.652;2022-09-13T02:33:36;17.30;99.90
34837;DHT22;21053;50.848;4.652;2022-09-13T02:36:07;17.30;99.90
34837;DHT22;21053;50.848;4.652;2022-09-13T02:38:42;17.30;99.90
34837;DHT22;21053;50.848;4.652;2022-09-13T02:44:01;17.60;99.90
34837;DHT22;21053;50.848;4.652;2022-09-13T02:49:53;17.80;99.90
34837;DHT22;21053;50.848;4.652;2022-09-13T02:58:20;17.70;99.90
34837;DHT22;21053;50.848;4.652;2022-09-13T03:00:51;17.50;99.90
34837;DHT22;21053;50.848;4.652;2022-09-13T03:03:20;17.50;99.90
34837;DHT22;21053;50.848;4.652;2022-09-13T03:05:49;17.50;99.90
34837;DHT22;21053;50.848;4.652;2022-09-13T03:08:16;17.60;99.90
34837;DHT22;21053;50.848;4.652;2022-09-13T03:11:10;17.70;99.90
34837;DHT22;21053;50.848;4.652;2022-09-13T03:31:11;17.20;99.90
34837;DHT22;21053;50.848;4.652;2022-09-13T03:33:47;17.40;99.90
34837;DHT22;21053;50.848;4.652;2022-09-13T03:36:34;17.60;99.90
34837;DHT22;21053;50.848;4.652;2022-09-13T03:39:15;17.70;99.90
34837;DHT22;21053;50.848;4.652;2022-09-13T03:41:48;17.70;99.90
34837;DHT22;21053;50.848;4.652;2022-09-13T03:44:20;17.70;99.90
34837;DHT22;21053;50.848;4.652;2022-09-13T03:46:54;17.60;99.90
34837;DHT22;21053;50.848;4.652;2022-09-13T03:49:26;17.60;99.90
34837;DHT22;21053;50.848;4.652;2022-09-13T03:51:54;17.60;99.90
34837;DHT22;21053;50.848;4.652;2022-09-13T03:54:30;17.60;99.90
34837;DHT22;21053;50.848;4.652;2022-09-13T03:57:16;17.70;99.90
34837;DHT22;21053;50.848;4.652;2022-09-13T03:59:52;17.60;99.90
34837;DHT22;21053;50.848;4.652;2022-09-13T04:02:23;17.30;99.90
34837;DHT22;21053;50.848;4.652;2022-09-13T04:04:51;17.40;99.90
34837;DHT22;21053;50.848;4.652;2022-09-13T04:07:22;17.40;99.90
34837;DHT22;21053;50.848;4.652;2022-09-13T04:09:50;17.50;99.90
34837;DHT22;21053;50.848;4.652;2022-09-13T04:12:17;17.50;99.90
34837;DHT22;21053;50.848;4.652;2022-09-13T04:14:49;17.40;99.90
34837;DHT22;21053;50.848;4.652;2022-09-13T04:17:15;17.60;99.90
34837;DHT22;21053;50.848;4.652;2022-09-13T04:19:42;17.60;99.90
34837;DHT22;21053;50.848;4.652;2022-09-13T04:22:13;17.50;99.90
34837;DHT22;21053;50.848;4.652;2022-09-13T04:24:41;17.40;99.90
34837;DHT22;21053;50.848;4.652;2022-09-13T04:27:11;17.50;99.90
34837;DHT22;21053;50.848;4.652;2022-09-13T04:29:39;17.70;99.90
34837;DHT22;21053;50.848;4.652;2022-09-13T04:32:06;17.70;99.90
34837;DHT22;21053;50.848;4.652;2022-09-13T04:34:38;17.60;99.90
34837;DHT22;21053;50.848;4.652;2022-09-13T04:37:04;17.70;99.90
34837;DHT22;21053;50.848;4.652;2022-09-13T04:39:30;17.70;99.90
34837;DHT22;21053;50.848;4.652;2022-09-13T04:41:59;17.70;99.90
34837;DHT22;21053;50.848;4.652;2022-09-13T04:44:25;17.80;99.90
34837;DHT22;21053;50.848;4.652;2022-09-13T04:46:53;17.70;99.90
34837;DHT22;21053;50.848;4.652;2022-09-13T04:49:20;17.80;99.90
34837;DHT22;21053;50.848;4.652;2022-09-13T04:51:49;17.80;99.90
34837;DHT22;21053;50.848;4.652;2022-09-13T04:54:15;17.60;99.90
34837;DHT22;21053;50.848;4.652;2022-09-13T04:56:40;17.70;99.90
34837;DHT22;21053;50.848;4.652;2022-09-13T04:59:09;17.60;99.90
34837;DHT22;21053;50.848;4.652;2022-09-13T05:01:37;17.70;99.90
34837;DHT22;21053;50.848;4.652;2022-09-13T05:04:04;17.80;99.90
34837;DHT22;21053;50.848;4.652;2022-09-13T05:06:32;17.80;99.90
34837;DHT22;21053;50.848;4.652;2022-09-13T05:08:58;17.80;99.90
34837;DHT22;21053;50.848;4.652;2022-09-13T05:11:26;17.70;99.90
34837;DHT22;21053;50.848;4.652;2022-09-13T05:13:55;17.60;99.90
34837;DHT22;21053;50.848;4.652;2022-09-13T05:16:27;17.70;99.90
34837;DHT22;21053;50.848;4.652;2022-09-13T05:18:57;17.80;99.90
34837;DHT22;21053;50.848;4.652;2022-09-13T05:21:23;17.80;99.90
34837;DHT22;21053;50.848;4.652;2022-09-13T05:23:53;17.80;99.90
34837;DHT22;21053;50.848;4.652;2022-09-13T05:26:21;17.80;99.90
34837;DHT22;21053;50.848;4.652;2022-09-13T05:28:49;17.90;99.90
34837;DHT22;21053;50.848;4.652;2022-09-13T05:31:19;17.80;99.90
34837;DHT22;21053;50.848;4.652;2022-09-13T05:33:47;17.70;99.90
34837;DHT22;21053;50.848;4.652;2022-09-13T05:36:16;17.60;99.90
34837;DHT22;21053;50.848;4.652;2022-09-13T05:38:44;17.60;99.90
34837;DHT22;21053;50.848;4.652;2022-09-13T05:41:11;17.60;99.90
34837;DHT22;21053;50.848;4.652;2022-09-13T05:43:40;17.50;99.90
34837;DHT22;21053;50.848;4.652;2022-09-13T05:46:13;17.50;99.90
34837;DHT22;21053;50.848;4.652;2022-09-13T05:48:40;17.60;99.90
34837;DHT22;21053;50.848;4.652;2022-09-13T05:51:22;17.80;99.90
34837;DHT22;21053;50.848;4.652;2022-09-13T05:53:50;17.70;99.90
34837;DHT22;21053;50.848;4.652;2022-09-13T05:56:21;17.80;99.90
34837;DHT22;21053;50.848;4.652;2022-09-13T05:58:49;17.80;99.90
34837;DHT22;21053;50.848;4.652;2022-09-13T06:01:18;17.80;99.90
34837;DHT22;21053;50.848;4.652;2022-09-13T06:03:51;17.70;99.90
34837;DHT22;21053;50.848;4.652;2022-09-13T06:06:18;17.80;99.90
34837;DHT22;21053;50.848;4.652;2022-09-13T06:08:45;17.80;99.90
34837;DHT22;21053;50.848;4.652;2022-09-13T06:11:13;17.90;99.90
34837;DHT22;21053;50.848;4.652;2022-09-13T06:13:40;17.90;99.90
34837;DHT22;21053;50.848;4.652;2022-09-13T06:16:10;17.90;99.90
34837;DHT22;21053;50.848;4.652;2022-09-13T06:18:40;17.90;99.90
34837;DHT22;21053;50.848;4.652;2022-09-13T06:21:19;17.90;99.90
34837;DHT22;21053;50.848;4.652;2022-09-13T06:23:50;17.90;99.90
34837;DHT22;21053;50.848;4.652;2022-09-13T06:26:26;17.90;99.90
34837;DHT22;21053;50.848;4.652;2022-09-13T06:28:55;18.00;99.90
34837;DHT22;21053;50.848;4.652;2022-09-13T06:31:26;18.10;99.90
34837;DHT22;21053;50.848;4.652;2022-09-13T06:33:59;18.10;99.90
34837;DHT22;21053;50.848;4.652;2022-09-13T06:36:26;18.10;99.90
34837;DHT22;21053;50.848;4.652;2022-09-13T06:38:55;18.20;99.90
34837;DHT22;21053;50.848;4.652;2022-09-13T06:41:23;18.20;99.90
34837;DHT22;21053;50.848;4.652;2022-09-13T06:43:57;18.20;99.90
34837;DHT22;21053;50.848;4.652;2022-09-13T06:46:31;18.20;99.90
34837;DHT22;21053;50.848;4.652;2022-09-13T06:49:06;18.20;99.90
34837;DHT22;21053;50.848;4.652;2022-09-13T06:51:34;18.30;99.90
34837;DHT22;21053;50.848;4.652;2022-09-13T06:54:02;18.40;99.90
34837;DHT22;21053;50.848;4.652;2022-09-13T06:56:36;18.40;99.90
34837;DHT22;21053;50.848;4.652;2022-09-13T06:59:06;18.40;99.90
34837;DHT22;21053;50.848;4.652;2022-09-13T07:01:39;18.50;99.90
34837;DHT22;21053;50.848;4.652;2022-09-13T07:04:17;18.50;99.90
34837;DHT22;21053;50.848;4.652;2022-09-13T07:06:48;18.70;99.90
34837;DHT22;21053;50.848;4.652;2022-09-13T07:09:20;18.80;99.90
34837;DHT22;21053;50.848;4.652;2022-09-13T07:11:51;18.70;99.90
34837;DHT22;21053;50.848;4.652;2022-09-13T07:14:20;18.80;99.90
34837;DHT22;21053;50.848;4.652;2022-09-13T07:16:49;18.90;99.90
34837;DHT22;21053;50.848;4.652;2022-09-13T07:19:26;19.00;99.90
34837;DHT22;21053;50.848;4.652;2022-09-13T07:21:54;19.10;99.90
34837;DHT22;21053;50.848;4.652;2022-09-13T07:24:23;19.30;99.90
34837;DHT22;21053;50.848;4.652;2022-09-13T07:26:52;19.40;99.90
34837;DHT22;21053;50.848;4.652;2022-09-13T07:29:20;19.50;99.90
34837;DHT22;21053;50.848;4.652;2022-09-13T07:31:52;19.60;99.90
34837;DHT22;21053;50.848;4.652;2022-09-13T07:34:23;19.60;99.90
34837;DHT22;21053;50.848;4.652;2022-09-13T07:37:00;19.70;99.90
34837;DHT22;21053;50.848;4.652;2022-09-13T07:39:27;19.70;99.90
34837;DHT22;21053;50.848;4.652;2022-09-13T07:41:56;19.90;99.90
34837;DHT22;21053;50.848;4.652;2022-09-13T07:44:27;19.90;99.90
34837;DHT22;21053;50.848;4.652;2022-09-13T07:46:54;20.10;99.90
34837;DHT22;21053;50.848;4.652;2022-09-13T07:49:23;20.20;99.90
34837;DHT22;21053;50.848;4.652;2022-09-13T07:51:50;20.20;99.90
34837;DHT22;21053;50.848;4.652;2022-09-13T07:54:20;20.20;99.90
34837;DHT22;21053;50.848;4.652;2022-09-13T07:56:47;20.30;99.90
34837;DHT22;21053;50.848;4.652;2022-09-13T07:59:16;20.30;99.90
34837;DHT22;21053;50.848;4.652;2022-09-13T08:01:47;20.50;99.90
34837;DHT22;21053;50.848;4.652;2022-09-13T08:04:18;20.60;99.90
34837;DHT22;21053;50.848;4.652;2022-09-13T08:06:44;20.60;99.90
34837;DHT22;21053;50.848;4.652;2022-09-13T08:09:13;20.90;99.90
34837;DHT22;21053;50.848;4.652;2022-09-13T08:11:48;21.10;99.90
34837;DHT22;21053;50.848;4.652;2022-09-13T08:14:17;21.40;99.90
34837;DHT22;21053;50.848;4.652;2022-09-13T08:16:44;21.70;99.90
34837;DHT22;21053;50.848;4.652;2022-09-13T08:19:18;21.80;99.90
34837;DHT22;21053;50.848;4.652;2022-09-13T08:21:45;21.90;99.90
34837;DHT22;21053;50.848;4.652;2022-09-13T08:24:17;22.20;99.90
34837;DHT22;21053;50.848;4.652;2022-09-13T08:26:43;22.50;99.90
34837;DHT22;21053;50.848;4.652;2022-09-13T08:29:11;22.50;99.90
34837;DHT22;21053;50.848;4.652;2022-09-13T08:31:37;22.60;99.90
34837;DHT22;21053;50.848;4.652;2022-09-13T08:34:07;22.70;99.90
34837;DHT22;21053;50.848;4.652;2022-09-13T08:36:35;22.60;99.90
34837;DHT22;21053;50.848;4.652;2022-09-13T08:39:02;22.40;99.90
34837;DHT22;21053;50.848;4.652;2022-09-13T08:44:32;22.30;99.90
34837;DHT22;21053;50.848;4.652;2022-09-13T08:49:43;22.40;99.90
34837;DHT22;21053;50.848;4.652;2022-09-13T08:52:32;22.40;99.90
34837;DHT22;21053;50.848;4.652;2022-09-13T08:55:07;22.50;99.90
34837;DHT22;21053;50.848;4.652;2022-09-13T08:57:44;22.50;99.90
34837;DHT22;21053;50.848;4.652;2022-09-13T09:00:43;22.60;99.90
34837;DHT22;21053;50.848;4.652;2022-09-13T09:03:34;22.70;99.90
34837;DHT22;21053;50.848;4.652;2022-09-13T09:06:13;22.90;99.90
34837;DHT22;21053;50.848;4.652;2022-09-13T09:11:34;23.00;99.90
34837;DHT22;21053;50.848;4.652;2022-09-13T09:17:28;23.50;99.90
34837;DHT22;21053;50.848;4.652;2022-09-13T09:20:15;23.60;99.90
34837;DHT22;21053;50.848;4.652;2022-09-13T09:22:43;23.60;99.90
34837;DHT22;21053;50.848;4.652;2022-09-13T09:25:11;23.60;99.90
34837;DHT22;21053;50.848;4.652;2022-09-13T09:27:39;23.70;99.90
34837;DHT22;21053;50.848;4.652;2022-09-13T09:30:11;23.80;99.90
34837;DHT22;21053;50.848;4.652;2022-09-13T09:41:00;24.30;99.00
34837;DHT22;21053;50.848;4.652;2022-09-13T09:46:22;24.40;99.30
34837;DHT22;21053;50.848;4.652;2022-09-13T09:48:58;24.40;99.70
34837;DHT22;21053;50.848;4.652;2022-09-13T09:51:27;24.40;99.20
34837;DHT22;21053;50.848;4.652;2022-09-13T09:54:02;24.70;99.70
34837;DHT22;21053;50.848;4.652;2022-09-13T09:56:33;25.00;98.10
34837;DHT22;21053;50.848;4.652;2022-09-13T09:59:03;25.20;97.90
34837;DHT22;21053;50.848;4.652;2022-09-13T10:01:36;25.30;97.70
34837;DHT22;21053;50.848;4.652;2022-09-13T10:06:43;25.30;97.10
34837;DHT22;21053;50.848;4.652;2022-09-13T10:12:05;25.40;97.20
34837;DHT22;21053;50.848;4.652;2022-09-13T10:14:41;25.40;96.60
34837;DHT22;21053;50.848;4.652;2022-09-13T10:17:26;25.40;95.80
34837;DHT22;21053;50.848;4.652;2022-09-13T10:22:29;25.30;95.50
34837;DHT22;21053;50.848;4.652;2022-09-13T10:25:21;25.30;95.50
34837;DHT22;21053;50.848;4.652;2022-09-13T10:27:52;25.30;95.70
34837;DHT22;21053;50.848;4.652;2022-09-13T10:30:35;25.30;95.90
34837;DHT22;21053;50.848;4.652;2022-09-13T10:33:11;25.30;96.20
34837;DHT22;21053;50.848;4.652;2022-09-13T10:35:52;25.40;95.00
34837;DHT22;21053;50.848;4.652;2022-09-13T10:39:11;25.30;95.00
34837;DHT22;21053;50.848;4.652;2022-09-13T10:41:25;25.40;95.70
34837;DHT22;21053;50.848;4.652;2022-09-13T10:44:00;25.40;95.30
34837;DHT22;21053;50.848;4.652;2022-09-13T10:46:30;25.40;95.80
34837;DHT22;21053;50.848;4.652;2022-09-13T10:48:57;25.40;97.10
34837;DHT22;21053;50.848;4.652;2022-09-13T10:54:16;25.30;98.10
34837;DHT22;21053;50.848;4.652;2022-09-13T10:56:49;25.30;97.40
34837;DHT22;21053;50.848;4.652;2022-09-13T11:05:08;25.20;96.70
34837;DHT22;21053;50.848;4.652;2022-09-13T11:16:09;25.20;94.60
34837;DHT22;21053;50.848;4.652;2022-09-13T11:21:59;25.20;95.20
34837;DHT22;21053;50.848;4.652;2022-09-13T11:27:34;25.30;93.50
34837;DHT22;21053;50.848;4.652;2022-09-13T11:30:20;25.30;93.90
34837;DHT22;21053;50.848;4.652;2022-09-13T11:41:25;25.30;93.90
34837;DHT22;21053;50.848;4.652;2022-09-13T11:47:10;25.50;92.60
34837;DHT22;21053;50.848;4.652;2022-09-13T11:55:43;25.30;96.20
34837;DHT22;21053;50.848;4.652;2022-09-13T11:58:13;25.30;96.00
34837;DHT22;21053;50.848;4.652;2022-09-13T12:00:53;25.30;95.80
34837;DHT22;21053;50.848;4.652;2022-09-13T12:03:42;25.40;96.20
34837;DHT22;21053;50.848;4.652;2022-09-13T12:06:18;25.50;96.30
34837;DHT22;21053;50.848;4.652;2022-09-13T12:08:51;25.50;96.60
34837;DHT22;21053;50.848;4.652;2022-09-13T12:11:28;25.50;97.10
34837;DHT22;21053;50.848;4.652;2022-09-13T12:13:57;25.50;97.10
34837;DHT22;21053;50.848;4.652;2022-09-13T12:16:37;25.60;96.20
34837;DHT22;21053;50.848;4.652;2022-09-13T12:19:53;25.50;96.40
34837;DHT22;21053;50.848;4.652;2022-09-13T12:22:13;25.50;95.70
34837;DHT22;21053;50.848;4.652;2022-09-13T12:24:46;25.60;95.40
34837;DHT22;21053;50.848;4.652;2022-09-13T12:32:43;25.60;94.80
34837;DHT22;21053;50.848;4.652;2022-09-13T12:35:26;25.60;96.00
34837;DHT22;21053;50.848;4.652;2022-09-13T12:43:55;25.40;96.40
34837;DHT22;21053;50.848;4.652;2022-09-13T12:52:29;25.20;99.60
34837;DHT22;21053;50.848;4.652;2022-09-13T12:58:44;25.00;99.80
34837;DHT22;21053;50.848;4.652;2022-09-13T13:01:28;25.00;99.60
34837;DHT22;21053;50.848;4.652;2022-09-13T13:04:12;25.00;99.20
34837;DHT22;21053;50.848;4.652;2022-09-13T13:09:37;25.10;99.90
34837;DHT22;21053;50.848;4.652;2022-09-13T13:12:38;25.10;99.90
34837;DHT22;21053;50.848;4.652;2022-09-13T13:17:52;25.40;99.90
34837;DHT22;21053;50.848;4.652;2022-09-13T13:21:02;25.30;99.50
34837;DHT22;21053;50.848;4.652;2022-09-13T13:23:39;25.10;99.90
34837;DHT22;21053;50.848;4.652;2022-09-13T13:26:57;24.90;99.90
34837;DHT22;21053;50.848;4.652;2022-09-13T13:29:14;24.80;99.90
34837;DHT22;21053;50.848;4.652;2022-09-13T13:32:03;24.70;99.90
34837;DHT22;21053;50.848;4.652;2022-09-13T13:34:49;24.70;99.90
34837;DHT22;21053;50.848;4.652;2022-09-13T13:40:08;24.70;99.90
34837;DHT22;21053;50.848;4.652;2022-09-13T13:42:37;24.70;99.90
34837;DHT22;21053;50.848;4.652;2022-09-13T13:45:22;24.70;99.90
34837;DHT22;21053;50.848;4.652;2022-09-13T13:48:12;24.60;99.90
34837;DHT22;21053;50.848;4.652;2022-09-13T13:51:13;24.50;99.90
34837;DHT22;21053;50.848;4.652;2022-09-13T13:53:48;24.40;99.90
34837;DHT22;21053;50.848;4.652;2022-09-13T13:56:54;24.30;99.90
34837;DHT22;21053;50.848;4.652;2022-09-13T13:59:32;24.30;99.90
34837;DHT22;21053;50.848;4.652;2022-09-13T14:02:00;24.40;99.90
34837;DHT22;21053;50.848;4.652;2022-09-13T14:16:20;24.20;99.90
34837;DHT22;21053;50.848;4.652;2022-09-13T14:21:35;24.10;99.90
34837;DHT22;21053;50.848;4.652;2022-09-13T14:26:51;24.00;99.90
34837;DHT22;21053;50.848;4.652;2022-09-13T14:29:21;24.00;99.90
34837;DHT22;21053;50.848;4.652;2022-09-13T14:32:02;24.00;99.90
34837;DHT22;21053;50.848;4.652;2022-09-13T14:34:32;24.00;99.90
34837;DHT22;21053;50.848;4.652;2022-09-13T14:37:04;24.00;99.90
34837;DHT22;21053;50.848;4.652;2022-09-13T14:39:31;24.00;99.90
34837;DHT22;21053;50.848;4.652;2022-09-13T14:44:29;23.80;99.90
34837;DHT22;21053;50.848;4.652;2022-09-13T14:47:29;23.80;99.90
34837;DHT22;21053;50.848;4.652;2022-09-13T14:50:09;23.70;99.90
34837;DHT22;21053;50.848;4.652;2022-09-13T14:52:48;23.70;99.90
34837;DHT22;21053;50.848;4.652;2022-09-13T14:55:21;23.70;99.90
34837;DHT22;21053;50.848;4.652;2022-09-13T14:57:55;23.80;99.90
34837;DHT22;21053;50.848;4.652;2022-09-13T15:00:23;23.60;99.90
34837;DHT22;21053;50.848;4.652;2022-09-13T15:03:11;23.60;99.90
34837;DHT22;21053;50.848;4.652;2022-09-13T15:05:41;23.60;99.90
34837;DHT22;21053;50.848;4.652;2022-09-13T15:08:45;23.60;99.90
34837;DHT22;21053;50.848;4.652;2022-09-13T15:11:36;23.50;99.90
34837;DHT22;21053;50.848;4.652;2022-09-13T15:16:52;23.50;99.90
34837;DHT22;21053;50.848;4.652;2022-09-13T15:19:27;23.60;99.90
34837;DHT22;21053;50.848;4.652;2022-09-13T15:24:45;23.60;99.90
34837;DHT22;21053;50.848;4.652;2022-09-13T15:27:25;23.60;99.90
34837;DHT22;21053;50.848;4.652;2022-09-13T15:30:03;23.50;99.90
34837;DHT22;21053;50.848;4.652;2022-09-13T15:32:39;23.50;99.90
34837;DHT22;21053;50.848;4.652;2022-09-13T15:35:17;23.50;99.90
34837;DHT22;21053;50.848;4.652;2022-09-13T15:38:01;23.40;99.90
34837;DHT22;21053;50.848;4.652;2022-09-13T15:40:43;23.40;99.90
34837;DHT22;21053;50.848;4.652;2022-09-13T15:43:09;23.50;99.90
34837;DHT22;21053;50.848;4.652;2022-09-13T15:45:36;23.30;99.90
34837;DHT22;21053;50.848;4.652;2022-09-13T15:48:05;23.20;99.90
34837;DHT22;21053;50.848;4.652;2022-09-13T15:50:31;23.30;99.90
34837;DHT22;21053;50.848;4.652;2022-09-13T15:52:59;23.40;99.90
34837;DHT22;21053;50.848;4.652;2022-09-13T15:55:27;23.40;99.90
34837;DHT22;21053;50.848;4.652;2022-09-13T15:57:54;23.30;99.90
34837;DHT22;21053;50.848;4.652;2022-09-13T16:00:23;23.30;99.90
34837;DHT22;21053;50.848;4.652;2022-09-13T16:02:50;23.30;99.90
34837;DHT22;21053;50.848;4.652;2022-09-13T16:05:19;23.30;99.90
34837;DHT22;21053;50.848;4.652;2022-09-13T16:07:46;23.30;99.90
34837;DHT22;21053;50.848;4.652;2022-09-13T16:10:16;23.20;99.90
34837;DHT22;21053;50.848;4.652;2022-09-13T16:12:43;23.20;99.90
34837;DHT22;21053;50.848;4.652;2022-09-13T16:15:10;23.20;99.90
34837;DHT22;21053;50.848;4.652;2022-09-13T16:17:37;23.30;99.90
34837;DHT22;21053;50.848;4.652;2022-09-13T16:21:05;23.20;99.90
34837;DHT22;21053;50.848;4.652;2022-09-13T16:23:32;23.20;99.90
34837;DHT22;21053;50.848;4.652;2022-09-13T16:26:00;23.20;99.90
34837;DHT22;21053;50.848;4.652;2022-09-13T16:28:29;23.20;99.90
34837;DHT22;21053;50.848;4.652;2022-09-13T16:30:56;23.20;99.90
34837;DHT22;21053;50.848;4.652;2022-09-13T16:33:28;23.10;99.90
34837;DHT22;21053;50.848;4.652;2022-09-13T16:35:58;23.10;99.90
34837;DHT22;21053;50.848;4.652;2022-09-13T16:38:27;23.10;99.90
34837;DHT22;21053;50.848;4.652;2022-09-13T16:40:54;23.10;99.90
34837;DHT22;21053;50.848;4.652;2022-09-13T16:43:21;23.00;99.90
34837;DHT22;21053;50.848;4.652;2022-09-13T16:45:47;22.90;99.90
34837;DHT22;21053;50.848;4.652;2022-09-13T16:48:17;22.90;99.90
34837;DHT22;21053;50.848;4.652;2022-09-13T16:50:44;22.80;99.90
34837;DHT22;21053;50.848;4.652;2022-09-13T16:53:13;22.70;99.90
34837;DHT22;21053;50.848;4.652;2022-09-13T16:55:44;22.70;99.90
34837;DHT22;21053;50.848;4.652;2022-09-13T16:58:13;22.70;99.90
34837;DHT22;21053;50.848;4.652;2022-09-13T17:00:42;22.70;99.90
34837;DHT22;21053;50.848;4.652;2022-09-13T17:03:11;22.60;99.90
34837;DHT22;21053;50.848;4.652;2022-09-13T17:05:37;22.60;99.90
34837;DHT22;21053;50.848;4.652;2022-09-13T17:08:03;22.40;99.90
34837;DHT22;21053;50.848;4.652;2022-09-13T17:10:32;22.40;99.90
34837;DHT22;21053;50.848;4.652;2022-09-13T17:12:59;22.40;99.90
34837;DHT22;21053;50.848;4.652;2022-09-13T17:15:25;22.40;99.90
34837;DHT22;21053;50.848;4.652;2022-09-13T17:17:51;22.20;99.90
34837;DHT22;21053;50.848;4.652;2022-09-13T17:20:17;22.20;99.90
34837;DHT22;21053;50.848;4.652;2022-09-13T17:22:43;22.30;99.90
34837;DHT22;21053;50.848;4.652;2022-09-13T17:25:09;22.30;99.90
34837;DHT22;21053;50.848;4.652;2022-09-13T17:27:37;22.20;99.90
34837;DHT22;21053;50.848;4.652;2022-09-13T17:30:03;22.10;99.90
34837;DHT22;21053;50.848;4.652;2022-09-13T17:32:32;22.00;99.90
34837;DHT22;21053;50.848;4.652;2022-09-13T17:34:58;22.00;99.90
34837;DHT22;21053;50.848;4.652;2022-09-13T17:37:27;22.00;99.90
34837;DHT22;21053;50.848;4.652;2022-09-13T17:39:56;22.00;99.90
34837;DHT22;21053;50.848;4.652;2022-09-13T17:42:24;21.90;99.90
34837;DHT22;21053;50.848;4.652;2022-09-13T17:44:51;22.00;99.90
34837;DHT22;21053;50.848;4.652;2022-09-13T17:47:23;22.00;99.90
34837;DHT22;21053;50.848;4.652;2022-09-13T17:49:52;21.80;99.90
34837;DHT22;21053;50.848;4.652;2022-09-13T17:52:21;21.80;99.90
34837;DHT22;21053;50.848;4.652;2022-09-13T17:54:53;21.90;99.90
34837;DHT22;21053;50.848;4.652;2022-09-13T17:57:22;21.80;99.90
34837;DHT22;21053;50.848;4.652;2022-09-13T17:59:50;21.80;99.90
34837;DHT22;21053;50.848;4.652;2022-09-13T18:02:17;21.80;99.90
34837;DHT22;21053;50.848;4.652;2022-09-13T18:04:46;21.70;99.90
34837;DHT22;21053;50.848;4.652;2022-09-13T18:07:13;21.50;99.90
34837;DHT22;21053;50.848;4.652;2022-09-13T18:09:39;21.40;99.90
34837;DHT22;21053;50.848;4.652;2022-09-13T18:12:08;21.40;99.90
34837;DHT22;21053;50.848;4.652;2022-09-13T18:14:37;21.30;99.90
34837;DHT22;21053;50.848;4.652;2022-09-13T18:17:05;21.30;99.90
34837;DHT22;21053;50.848;4.652;2022-09-13T18:19:40;21.40;99.90
34837;DHT22;21053;50.848;4.652;2022-09-13T18:22:08;21.60;99.90
34837;DHT22;21053;50.848;4.652;2022-09-13T18:24:36;21.40;99.90
34837;DHT22;21053;50.848;4.652;2022-09-13T18:27:02;21.30;99.90
34837;DHT22;21053;50.848;4.652;2022-09-13T18:29:31;21.30;99.90
34837;DHT22;21053;50.848;4.652;2022-09-13T18:31:57;21.20;99.90
34837;DHT22;21053;50.848;4.652;2022-09-13T18:34:26;21.10;99.90
34837;DHT22;21053;50.848;4.652;2022-09-13T18:36:52;21.30;99.90
34837;DHT22;21053;50.848;4.652;2022-09-13T18:39:20;21.40;99.90
34837;DHT22;21053;50.848;4.652;2022-09-13T18:41:47;21.40;99.90
34837;DHT22;21053;50.848;4.652;2022-09-13T18:44:14;21.50;99.90
34837;DHT22;21053;50.848;4.652;2022-09-13T18:46:41;21.50;99.90
34837;DHT22;21053;50.848;4.652;2022-09-13T18:49:08;21.40;99.90
34837;DHT22;21053;50.848;4.652;2022-09-13T18:51:39;21.30;99.90
34837;DHT22;21053;50.848;4.652;2022-09-13T18:54:12;21.10;99.90
34837;DHT22;21053;50.848;4.652;2022-09-13T18:56:44;21.10;99.90
34837;DHT22;21053;50.848;4.652;2022-09-13T18:59:16;21.30;99.90
34837;DHT22;21053;50.848;4.652;2022-09-13T19:01:42;21.30;99.90
34837;DHT22;21053;50.848;4.652;2022-09-13T19:04:17;21.10;99.90